Time;durP1;ratioP1;P1;durP2;ratioP2;P2;SDS_P1;SDS_P2;PMS_P1;PMS_P2;Temp;Humidity;BMP_temperature;BMP_pressure;BME280_temperature;BME280_humidity;BME280_pressure;Samples;Min_cycle;Max_cycle;Signal;HPM_P1;HPM_P2
2022/03/07 00:02:06;;;;;;;12.18;5.57;;;-0.80;99.90;;;;;;5008118;28;20037;-77
2022/03/07 00:04:32;;;;;;;12.63;5.55;;;-0.90;99.90;;;;;;5006069;28;20053;-77
2022/03/07 00:06:57;;;;;;;11.10;4.95;;;-0.90;99.90;;;;;;5011221;28;20070;-78
2022/03/07 00:09:23;;;;;;;10.13;5.72;;;-1.00;99.90;;;;;;5010182;28;20041;-77
2022/03/07 00:11:48;;;;;;;11.15;5.60;;;-1.00;99.90;;;;;;5010624;28;20034;-77
2022/03/07 00:14:14;;;;;;;10.32;5.40;;;-1.00;99.90;;;;;;5009190;28;20033;-78
2022/03/07 00:16:39;;;;;;;11.18;7.20;;;-1.10;99.90;;;;;;5010385;28;20032;-78
2022/03/07 00:19:06;;;;;;;11.43;5.80;;;-1.00;99.90;;;;;;5007232;28;20022;-77
2022/03/07 00:21:31;;;;;;;9.82;5.35;;;-1.00;99.90;;;;;;4999334;28;20026;-78
2022/03/07 00:23:57;;;;;;;9.30;5.00;;;-1.00;99.90;;;;;;5010841;28;20437;-78
2022/03/07 00:26:23;;;;;;;9.43;5.75;;;-1.00;99.90;;;;;;5011372;28;20069;-78
2022/03/07 00:28:49;;;;;;;7.95;5.82;;;-1.00;99.90;;;;;;5001026;28;20056;-77
2022/03/07 00:31:15;;;;;;;8.15;5.45;;;-1.00;99.90;;;;;;5007459;28;20482;-78
2022/03/07 00:33:43;;;;;;;10.57;5.65;;;-1.10;99.90;;;;;;5010916;28;20084;-77
2022/03/07 00:36:09;;;;;;;15.55;5.90;;;-1.10;99.90;;;;;;5011236;28;20125;-78
2022/03/07 00:38:34;;;;;;;11.20;5.57;;;-1.20;99.90;;;;;;5014736;28;20113;-78
2022/03/07 00:41:01;;;;;;;12.82;6.00;;;-1.20;99.90;;;;;;5014953;28;20054;-77
2022/03/07 00:43:27;;;;;;;9.70;5.20;;;-1.30;99.90;;;;;;5012013;28;20030;-78
2022/03/07 00:45:53;;;;;;;11.57;6.30;;;-1.30;99.90;;;;;;5010138;28;20042;-78
2022/03/07 00:48:19;;;;;;;10.07;5.53;;;-1.40;99.90;;;;;;5007014;28;20385;-77
2022/03/07 00:50:50;;;;;;;13.15;6.35;;;-1.40;99.90;;;;;;5012025;28;20022;-78
2022/03/07 00:53:21;;;;;;;11.60;6.47;;;-1.40;99.90;;;;;;5011734;28;20022;-78
2022/03/07 00:55:46;;;;;;;14.07;6.43;;;-1.50;99.90;;;;;;5014681;28;20030;-78
2022/03/07 00:58:13;;;;;;;15.45;6.97;;;-1.50;99.90;;;;;;5011647;28;20164;-78
2022/03/07 01:00:39;;;;;;;10.52;6.35;;;-1.50;99.90;;;;;;5012690;28;20422;-78
2022/03/07 01:03:05;;;;;;;15.07;6.53;;;-1.60;99.90;;;;;;5010065;28;20164;-78
2022/03/07 01:05:32;;;;;;;14.05;6.28;;;-1.60;99.90;;;;;;5013510;28;20041;-78
2022/03/07 01:07:58;;;;;;;10.77;5.93;;;-1.50;99.90;;;;;;5014541;28;20088;-78
2022/03/07 01:10:24;;;;;;;11.57;5.78;;;-1.50;99.90;;;;;;5012565;28;20054;-77
2022/03/07 01:12:50;;;;;;;9.30;5.68;;;-1.50;99.90;;;;;;5007963;28;20037;-77
2022/03/07 01:15:16;;;;;;;9.60;5.05;;;-1.50;99.90;;;;;;5011327;28;20030;-78
2022/03/07 01:17:42;;;;;;;11.13;6.30;;;-1.50;99.90;;;;;;5013216;28;20038;-77
2022/03/07 01:20:09;;;;;;;14.68;6.45;;;-1.50;99.90;;;;;;5013628;28;20045;-77
2022/03/07 01:22:35;;;;;;;12.55;6.25;;;-1.50;99.90;;;;;;5009904;28;20030;-77
2022/03/07 01:25:05;;;;;;;8.93;5.20;;;-1.50;99.90;;;;;;5006840;28;20036;-77
2022/03/07 01:27:31;;;;;;;12.20;6.28;;;-1.50;99.90;;;;;;5013489;28;20026;-78
2022/03/07 01:29:57;;;;;;;13.40;6.68;;;-1.50;99.90;;;;;;5009088;28;20037;-77
2022/03/07 01:32:22;;;;;;;10.98;6.38;;;-1.50;99.90;;;;;;5010966;28;20034;-77
2022/03/07 01:34:48;;;;;;;10.45;5.75;;;-1.50;99.90;;;;;;5013195;28;20026;-77
2022/03/07 01:37:14;;;;;;;15.23;6.78;;;-1.50;99.90;;;;;;5012476;28;20394;-77
2022/03/07 01:39:39;;;;;;;13.40;6.38;;;-1.40;99.90;;;;;;5002433;28;20026;-78
2022/03/07 01:42:05;;;;;;;10.75;6.50;;;-1.40;99.90;;;;;;5008452;28;20030;-77
2022/03/07 01:44:32;;;;;;;9.32;5.47;;;-1.40;99.90;;;;;;5010035;28;20493;-77
2022/03/07 01:46:57;;;;;;;13.25;6.28;;;-1.40;99.90;;;;;;5004070;28;20517;-78
2022/03/07 01:49:24;;;;;;;11.77;6.32;;;-1.40;99.90;;;;;;5011199;28;20029;-77
2022/03/07 01:51:50;;;;;;;12.93;6.63;;;-1.40;99.90;;;;;;5012435;28;20022;-78
2022/03/07 01:54:17;;;;;;;13.02;6.75;;;-1.40;99.90;;;;;;5011164;28;20028;-77
2022/03/07 01:56:45;;;;;;;12.20;6.32;;;-1.40;99.90;;;;;;5013979;28;20053;-78
2022/03/07 01:59:18;;;;;;;13.27;7.63;;;-1.40;99.90;;;;;;5006124;28;20058;-78
2022/03/07 02:01:44;;;;;;;11.35;5.47;;;-1.40;99.90;;;;;;5011203;28;20403;-77
2022/03/07 02:04:10;;;;;;;10.95;5.93;;;-1.40;99.90;;;;;;5011649;28;20049;-77
2022/03/07 02:06:37;;;;;;;17.08;6.78;;;-1.40;99.90;;;;;;5010913;28;20045;-78
2022/03/07 02:09:02;;;;;;;10.38;6.53;;;-1.40;99.90;;;;;;5010010;28;20112;-78
2022/03/07 02:11:28;;;;;;;10.70;6.30;;;-1.50;99.90;;;;;;4995983;28;20113;-78
2022/03/07 02:13:54;;;;;;;11.48;6.03;;;-1.50;99.90;;;;;;4995727;28;20018;-78
2022/03/07 02:16:20;;;;;;;12.63;6.70;;;-1.40;99.90;;;;;;5005961;28;20053;-78
2022/03/07 02:18:46;;;;;;;9.27;5.90;;;-1.50;99.90;;;;;;5011645;28;20052;-77
2022/03/07 02:21:16;;;;;;;10.85;5.85;;;-1.50;99.90;;;;;;5011832;28;20120;-78
2022/03/07 02:23:44;;;;;;;15.13;6.53;;;-1.60;99.90;;;;;;5011540;28;20029;-77
2022/03/07 02:26:17;;;;;;;12.57;6.45;;;-1.60;99.90;;;;;;5011012;28;20065;-78
2022/03/07 02:28:44;;;;;;;12.40;6.78;;;-1.50;99.90;;;;;;5010158;28;20109;-77
2022/03/07 02:31:11;;;;;;;10.65;6.40;;;-1.50;99.90;;;;;;5011905;28;20481;-78
2022/03/07 02:33:37;;;;;;;13.90;7.18;;;-1.50;99.90;;;;;;5012701;28;20029;-78
2022/03/07 02:36:04;;;;;;;11.73;6.25;;;-1.50;99.90;;;;;;5011337;28;20026;-78
2022/03/07 02:38:30;;;;;;;12.52;6.40;;;-1.50;99.90;;;;;;5009017;28;20026;-78
2022/03/07 02:40:58;;;;;;;12.98;6.93;;;-1.50;99.90;;;;;;5008065;28;20026;-78
2022/03/07 02:43:24;;;;;;;9.30;6.00;;;-1.50;99.90;;;;;;5010038;28;20384;-77
2022/03/07 02:45:51;;;;;;;11.00;6.55;;;-1.40;99.90;;;;;;5008973;28;20041;-79
2022/03/07 02:48:18;;;;;;;13.82;6.85;;;-1.50;99.90;;;;;;5001976;28;20466;-78
2022/03/07 02:50:45;;;;;;;12.75;7.18;;;-1.40;99.90;;;;;;5011455;28;20499;-78
2022/03/07 02:53:10;;;;;;;12.48;7.63;;;-1.50;99.90;;;;;;5010045;28;20098;-78
2022/03/07 02:55:36;;;;;;;15.90;6.82;;;-1.50;99.90;;;;;;5012058;28;20105;-77
2022/03/07 02:58:03;;;;;;;13.38;7.63;;;-1.50;99.90;;;;;;5008383;28;20026;-78
2022/03/07 03:00:29;;;;;;;12.27;6.65;;;-1.60;99.90;;;;;;5005972;28;20079;-77
2022/03/07 03:02:54;;;;;;;13.05;7.47;;;-1.60;99.90;;;;;;5009630;28;20030;-78
2022/03/07 03:05:20;;;;;;;12.98;7.65;;;-1.70;99.90;;;;;;5011541;28;20042;-79
2022/03/07 03:07:47;;;;;;;12.25;6.70;;;-1.70;99.90;;;;;;5011994;28;20030;-78
2022/03/07 03:10:13;;;;;;;13.05;6.78;;;-1.80;99.90;;;;;;5009428;28;20061;-78
2022/03/07 03:12:39;;;;;;;13.02;7.05;;;-1.80;99.90;;;;;;5010462;28;20537;-78
2022/03/07 03:15:06;;;;;;;14.93;6.95;;;-1.90;99.90;;;;;;5010658;28;20077;-79
2022/03/07 03:17:31;;;;;;;13.77;7.80;;;-1.90;99.90;;;;;;5011361;28;20500;-78
2022/03/07 03:19:57;;;;;;;12.90;7.00;;;-1.90;99.90;;;;;;5008848;28;20026;-78
2022/03/07 03:22:22;;;;;;;14.52;7.43;;;-2.00;99.90;;;;;;5012018;28;20037;-78
2022/03/07 03:24:49;;;;;;;13.70;7.57;;;-2.00;99.90;;;;;;5008282;28;20057;-78
2022/03/07 03:27:15;;;;;;;15.40;7.75;;;-2.00;99.90;;;;;;5007251;28;20125;-78
2022/03/07 03:29:41;;;;;;;14.07;7.32;;;-2.10;99.90;;;;;;5010889;28;20030;-77
2022/03/07 03:32:07;;;;;;;16.63;8.70;;;-2.10;99.90;;;;;;5005436;28;20077;-78
2022/03/07 03:34:32;;;;;;;14.30;7.78;;;-2.10;99.90;;;;;;4998136;28;20505;-78
2022/03/07 03:36:58;;;;;;;11.98;7.10;;;-2.10;99.90;;;;;;5012120;28;20033;-78
2022/03/07 03:39:23;;;;;;;16.67;8.40;;;-2.10;99.90;;;;;;5006432;28;20065;-77
2022/03/07 03:41:49;;;;;;;18.45;7.63;;;-2.10;99.90;;;;;;5008366;28;20072;-78
2022/03/07 03:44:14;;;;;;;12.93;8.38;;;-2.10;99.90;;;;;;5009493;28;20025;-77
2022/03/07 03:46:40;;;;;;;16.35;8.27;;;-2.10;99.90;;;;;;5011400;28;20521;-78
2022/03/07 03:49:06;;;;;;;11.68;6.63;;;-2.10;99.90;;;;;;5008460;28;20022;-78
2022/03/07 03:51:34;;;;;;;16.35;7.30;;;-2.20;99.90;;;;;;5011816;28;20033;-78
2022/03/07 03:54:00;;;;;;;17.77;8.35;;;-2.20;99.90;;;;;;5009480;28;20028;-78
2022/03/07 03:56:26;;;;;;;16.10;7.95;;;-2.20;99.90;;;;;;5009528;28;20049;-77
2022/03/07 03:58:51;;;;;;;12.70;7.53;;;-2.20;99.90;;;;;;5011078;28;20084;-78
2022/03/07 04:01:17;;;;;;;11.25;7.57;;;-2.20;99.90;;;;;;5009503;28;20030;-78
2022/03/07 04:03:42;;;;;;;16.27;7.35;;;-2.20;99.90;;;;;;5011570;28;20033;-78
2022/03/07 04:06:08;;;;;;;15.23;8.52;;;-2.20;99.90;;;;;;5011404;28;20109;-78
2022/03/07 04:08:40;;;;;;;15.20;8.13;;;-2.20;99.90;;;;;;5006768;28;20018;-78
2022/03/07 04:11:06;;;;;;;13.10;7.07;;;-2.20;99.90;;;;;;5010833;28;20053;-80
2022/03/07 04:13:31;;;;;;;13.02;7.13;;;-2.20;99.90;;;;;;5014580;28;20029;-78
2022/03/07 04:15:57;;;;;;;12.63;7.45;;;-2.20;99.90;;;;;;5014328;28;20077;-78
2022/03/07 04:18:22;;;;;;;15.77;8.15;;;-2.20;99.90;;;;;;5013530;28;20018;-78
2022/03/07 04:20:48;;;;;;;15.82;8.82;;;-2.20;99.90;;;;;;5013660;28;20042;-78
2022/03/07 04:23:15;;;;;;;14.18;8.35;;;-2.20;99.90;;;;;;5008246;28;20014;-78
2022/03/07 04:25:41;;;;;;;16.60;7.78;;;-2.20;99.90;;;;;;5009953;28;20124;-77
2022/03/07 04:28:06;;;;;;;16.10;8.80;;;-2.20;99.90;;;;;;5012024;28;20052;-78
2022/03/07 04:30:33;;;;;;;15.80;8.27;;;-2.10;99.90;;;;;;5014703;28;20034;-78
2022/03/07 04:32:58;;;;;;;15.50;8.90;;;-2.10;99.90;;;;;;5013218;28;20026;-78
2022/03/07 04:35:24;;;;;;;15.65;9.25;;;-2.10;99.90;;;;;;5012095;28;20029;-77
2022/03/07 04:37:49;;;;;;;16.40;9.70;;;-2.00;99.90;;;;;;5012657;28;20058;-78
2022/03/07 04:40:16;;;;;;;13.68;8.95;;;-2.00;99.90;;;;;;5012177;28;20109;-78
2022/03/07 04:42:44;;;;;;;14.73;9.63;;;-2.00;99.90;;;;;;5012807;28;20065;-78
2022/03/07 04:45:11;;;;;;;16.25;8.27;;;-1.90;99.90;;;;;;5012586;28;20026;-77
2022/03/07 04:47:37;;;;;;;21.38;10.75;;;-1.90;99.90;;;;;;5012352;28;20107;-78
2022/03/07 04:50:04;;;;;;;15.35;8.70;;;-1.90;99.90;;;;;;5002885;28;20488;-78
2022/03/07 04:52:29;;;;;;;14.55;8.65;;;-1.90;99.90;;;;;;5000667;28;20035;-78
2022/03/07 04:54:55;;;;;;;17.83;9.60;;;-1.90;99.90;;;;;;5010905;28;20387;-78
2022/03/07 04:57:20;;;;;;;17.65;8.88;;;-1.90;99.90;;;;;;5006535;28;20483;-78
2022/03/07 04:59:46;;;;;;;15.38;9.02;;;-2.00;99.90;;;;;;5011940;28;20477;-78
2022/03/07 05:02:13;;;;;;;17.42;9.57;;;-1.90;99.90;;;;;;5012848;28;20033;-78
2022/03/07 05:04:39;;;;;;;15.93;9.75;;;-1.90;99.90;;;;;;5012025;28;20022;-78
2022/03/07 05:07:05;;;;;;;16.80;9.82;;;-1.90;99.90;;;;;;5011679;28;20048;-77
2022/03/07 05:09:31;;;;;;;17.63;8.73;;;-1.90;99.90;;;;;;4999280;28;20042;-78
2022/03/07 05:11:57;;;;;;;18.95;10.63;;;-1.90;99.90;;;;;;5011952;28;20647;-78
2022/03/07 05:14:23;;;;;;;16.95;8.50;;;-1.90;99.90;;;;;;5013184;28;20022;-78
2022/03/07 05:16:48;;;;;;;17.13;9.98;;;-1.90;99.90;;;;;;5010913;28;20034;-77
2022/03/07 05:19:14;;;;;;;19.70;10.63;;;-1.90;99.90;;;;;;5010464;28;20025;-77
2022/03/07 05:21:40;;;;;;;20.15;10.38;;;-2.00;99.90;;;;;;5012474;28;20044;-78
2022/03/07 05:24:06;;;;;;;22.38;9.82;;;-2.00;99.90;;;;;;5013348;28;20034;-78
2022/03/07 05:26:32;;;;;;;18.65;9.60;;;-2.00;99.90;;;;;;5012696;28;20038;-77
2022/03/07 05:28:58;;;;;;;18.70;9.57;;;-2.00;99.90;;;;;;5012176;28;20037;-78
2022/03/07 05:31:23;;;;;;;22.13;10.77;;;-2.00;99.90;;;;;;5004007;28;21598;-77
2022/03/07 05:33:49;;;;;;;17.88;9.80;;;-2.00;99.90;;;;;;4991905;28;20400;-77
2022/03/07 05:36:14;;;;;;;15.48;8.85;;;-2.00;99.90;;;;;;5001886;28;20029;-77
2022/03/07 05:38:40;;;;;;;17.90;10.60;;;-2.00;99.90;;;;;;4993178;28;20034;-78
2022/03/07 05:41:06;;;;;;;21.48;9.95;;;-2.00;99.90;;;;;;4986665;28;20034;-78
2022/03/07 05:43:31;;;;;;;18.17;9.95;;;-2.10;99.90;;;;;;4987631;28;20030;-78
2022/03/07 05:45:57;;;;;;;22.55;10.90;;;-2.00;99.90;;;;;;4992490;28;20125;-78
2022/03/07 05:48:22;;;;;;;26.92;12.02;;;-2.00;99.90;;;;;;4991235;28;20034;-78
2022/03/07 05:50:48;;;;;;;22.20;11.38;;;-2.00;99.90;;;;;;4989868;28;20501;-78
2022/03/07 05:53:13;;;;;;;21.98;10.70;;;-2.00;99.90;;;;;;4992731;28;20053;-78
2022/03/07 05:55:41;;;;;;;17.27;10.82;;;-2.10;99.90;;;;;;4991138;28;20038;-78
2022/03/07 05:58:07;;;;;;;19.10;11.57;;;-2.10;99.90;;;;;;4992984;28;20056;-78
2022/03/07 06:00:32;;;;;;;20.83;11.05;;;-2.10;99.90;;;;;;4994741;28;20029;-79
2022/03/07 06:02:58;;;;;;;22.42;11.77;;;-2.10;99.90;;;;;;4990740;28;20083;-78
2022/03/07 06:05:24;;;;;;;27.00;11.88;;;-2.00;99.90;;;;;;4999508;28;20030;-78
2022/03/07 06:07:49;;;;;;;19.40;10.70;;;-2.10;99.90;;;;;;5013456;28;20026;-78
2022/03/07 06:10:15;;;;;;;21.88;12.10;;;-2.00;99.90;;;;;;5010299;28;20037;-78
2022/03/07 06:12:41;;;;;;;22.67;11.35;;;-2.00;99.90;;;;;;5013279;28;20049;-78
2022/03/07 06:15:07;;;;;;;23.23;11.23;;;-2.00;99.90;;;;;;5004113;28;20022;-79
2022/03/07 06:17:34;;;;;;;17.02;10.57;;;-2.00;99.90;;;;;;5011589;28;20028;-79
2022/03/07 06:20:00;;;;;;;23.00;11.73;;;-2.00;99.90;;;;;;5004684;28;20084;-78
2022/03/07 06:22:26;;;;;;;17.92;10.25;;;-2.00;99.90;;;;;;4989327;28;20037;-78
2022/03/07 06:24:51;;;;;;;23.50;12.10;;;-2.00;99.90;;;;;;4988583;28;20038;-78
2022/03/07 06:27:18;;;;;;;21.73;10.93;;;-2.00;99.90;;;;;;4992856;28;20061;-78
2022/03/07 06:29:44;;;;;;;18.30;10.82;;;-1.90;99.90;;;;;;4994576;28;20038;-78
2022/03/07 06:32:09;;;;;;;26.48;13.48;;;-1.80;99.90;;;;;;4987914;28;20037;-78
2022/03/07 06:34:35;;;;;;;21.58;12.85;;;-1.60;99.90;;;;;;4988728;28;20113;-78
2022/03/07 06:37:02;;;;;;;22.35;11.55;;;-1.50;99.90;;;;;;4989506;28;20048;-78
2022/03/07 06:39:27;;;;;;;25.48;13.00;;;-1.50;99.90;;;;;;4987689;28;20038;-78
2022/03/07 06:41:55;;;;;;;23.10;12.65;;;-1.40;99.90;;;;;;4982654;28;20022;-80
2022/03/07 06:44:21;;;;;;;24.10;12.90;;;-1.40;99.90;;;;;;4989545;28;20041;-79
2022/03/07 06:46:46;;;;;;;24.27;12.85;;;-1.30;99.90;;;;;;4984219;28;20536;-78
2022/03/07 06:49:12;;;;;;;26.15;13.10;;;-1.30;99.90;;;;;;4983244;28;20113;-79
2022/03/07 06:51:38;;;;;;;24.35;12.57;;;-1.30;99.90;;;;;;4986007;28;20117;-79
2022/03/07 06:54:04;;;;;;;22.35;11.82;;;-1.20;99.90;;;;;;4979059;28;20042;-79
2022/03/07 06:56:30;;;;;;;24.63;13.10;;;-1.20;99.90;;;;;;4996463;28;20133;-80
2022/03/07 06:58:56;;;;;;;24.42;12.85;;;-1.20;99.90;;;;;;4996232;28;20657;-79
2022/03/07 07:01:21;;;;;;;22.02;12.18;;;-1.20;99.90;;;;;;4984300;28;21484;-79
2022/03/07 07:03:47;;;;;;;23.80;12.85;;;-1.30;99.90;;;;;;4986677;28;20133;-78
2022/03/07 07:06:13;;;;;;;24.02;12.27;;;-1.20;99.90;;;;;;4979490;28;20042;-78
2022/03/07 07:08:39;;;;;;;24.77;14.55;;;-1.30;99.90;;;;;;4982928;28;20769;-77
2022/03/07 07:11:04;;;;;;;25.85;13.75;;;-1.20;99.90;;;;;;4989224;28;20092;-78
2022/03/07 07:13:30;;;;;;;24.02;12.40;;;-1.20;99.90;;;;;;4996525;28;20076;-78
2022/03/07 07:15:56;;;;;;;24.27;12.65;;;-1.10;99.90;;;;;;4993494;28;20034;-78
2022/03/07 07:18:24;;;;;;;29.95;14.40;;;-1.10;99.90;;;;;;4997761;28;20027;-78
2022/03/07 07:20:51;;;;;;;28.48;14.27;;;-1.00;99.90;;;;;;5007126;28;20030;-78
2022/03/07 07:23:19;;;;;;;28.95;14.00;;;-1.00;99.90;;;;;;5008930;28;20029;-78
2022/03/07 07:25:45;;;;;;;25.35;13.07;;;-0.90;99.90;;;;;;5011018;28;20406;-78
2022/03/07 07:28:11;;;;;;;24.05;13.55;;;-0.80;99.90;;;;;;5007782;28;20026;-77
2022/03/07 07:30:37;;;;;;;26.30;14.80;;;-0.80;99.90;;;;;;5009009;28;20025;-78
2022/03/07 07:33:03;;;;;;;29.65;14.27;;;-0.70;99.90;;;;;;5007614;28;20438;-78
2022/03/07 07:35:28;;;;;;;26.63;14.02;;;-0.60;99.90;;;;;;4998339;28;20371;-78
2022/03/07 07:37:54;;;;;;;27.25;14.00;;;-0.60;99.90;;;;;;5008136;28;20038;-78
2022/03/07 07:40:20;;;;;;;23.27;13.95;;;-0.50;99.90;;;;;;5009484;28;20025;-78
2022/03/07 07:42:46;;;;;;;26.70;14.70;;;-0.50;99.90;;;;;;4998085;28;20521;-78
2022/03/07 07:45:12;;;;;;;20.38;13.13;;;-0.40;99.90;;;;;;5012141;28;20049;-77
2022/03/07 07:47:39;;;;;;;28.48;14.32;;;-0.40;99.90;;;;;;5008733;28;20444;-78
2022/03/07 07:50:05;;;;;;;26.60;13.75;;;-0.40;99.90;;;;;;5009378;28;20010;-78
2022/03/07 07:52:31;;;;;;;22.63;13.65;;;-0.40;99.90;;;;;;5016278;28;20397;-78
2022/03/07 07:54:56;;;;;;;24.88;14.80;;;-0.30;99.90;;;;;;5007397;28;20025;-78
2022/03/07 07:57:22;;;;;;;21.83;13.88;;;-0.20;99.90;;;;;;5005365;28;20838;-77
2022/03/07 07:59:47;;;;;;;26.80;14.50;;;-0.10;99.90;;;;;;5012717;28;20168;-77
2022/03/07 08:02:13;;;;;;;24.98;13.98;;;0.00;99.90;;;;;;5009109;28;20401;-78
2022/03/07 08:04:38;;;;;;;26.27;13.70;;;0.10;99.90;;;;;;5013609;28;20371;-79
2022/03/07 08:07:04;;;;;;;31.65;16.55;;;0.10;99.90;;;;;;5013055;28;20042;-78
2022/03/07 08:09:29;;;;;;;29.77;14.73;;;0.30;99.90;;;;;;4997371;28;20097;-78
2022/03/07 08:11:55;;;;;;;26.92;15.40;;;0.40;99.90;;;;;;5010747;28;20079;-79
2022/03/07 08:14:20;;;;;;;23.30;14.27;;;0.40;99.90;;;;;;5008147;28;20057;-78
2022/03/07 08:16:46;;;;;;;25.40;14.70;;;0.50;99.90;;;;;;5003785;28;20085;-78
2022/03/07 08:19:12;;;;;;;26.75;14.25;;;0.60;99.90;;;;;;5008450;28;20076;-78
2022/03/07 08:21:37;;;;;;;24.67;14.32;;;0.70;99.90;;;;;;5013151;28;20034;-79
2022/03/07 08:24:03;;;;;;;24.58;15.13;;;0.80;99.90;;;;;;5011007;28;20023;-79
2022/03/07 08:26:29;;;;;;;26.27;15.55;;;0.90;99.90;;;;;;5014166;28;20056;-79
2022/03/07 08:28:55;;;;;;;25.27;14.18;;;1.00;99.90;;;;;;5012402;28;20109;-79
2022/03/07 08:31:21;;;;;;;25.98;15.02;;;1.10;99.90;;;;;;5013382;28;20486;-78
2022/03/07 08:33:46;;;;;;;25.45;14.85;;;1.20;99.90;;;;;;5013223;28;20026;-79
2022/03/07 08:36:12;;;;;;;26.23;14.88;;;1.30;99.90;;;;;;5013314;28;20034;-79
2022/03/07 08:38:38;;;;;;;24.88;15.55;;;1.30;99.90;;;;;;5013737;28;20458;-79
2022/03/07 08:41:04;;;;;;;26.23;14.02;;;1.40;99.90;;;;;;5010993;28;20088;-79
2022/03/07 08:43:29;;;;;;;25.95;14.93;;;1.50;99.90;;;;;;5014233;28;20022;-79
2022/03/07 08:45:55;;;;;;;24.67;13.98;;;1.60;99.90;;;;;;5008237;28;20042;-79
2022/03/07 08:48:20;;;;;;;22.00;13.80;;;1.70;99.90;;;;;;5006947;28;20030;-78
2022/03/07 08:50:48;;;;;;;22.88;13.85;;;1.80;99.90;;;;;;5013769;28;20425;-79
2022/03/07 08:53:16;;;;;;;24.63;13.60;;;1.90;99.90;;;;;;5009180;28;20026;-79
2022/03/07 08:55:41;;;;;;;19.85;12.90;;;2.00;99.90;;;;;;5010632;28;20502;-79
2022/03/07 08:58:07;;;;;;;18.90;11.55;;;2.20;99.90;;;;;;5013318;28;20157;-79
2022/03/07 09:00:33;;;;;;;15.93;11.05;;;2.40;99.90;;;;;;5011311;28;20058;-79
2022/03/07 09:02:59;;;;;;;18.08;12.48;;;2.50;99.90;;;;;;5013061;28;20026;-79
2022/03/07 09:05:25;;;;;;;18.08;11.32;;;2.60;99.90;;;;;;5003763;28;20034;-79
2022/03/07 09:07:51;;;;;;;17.15;11.32;;;2.70;99.90;;;;;;5001201;28;20045;-80
2022/03/07 09:10:17;;;;;;;14.90;10.60;;;2.80;99.90;;;;;;5012815;28;20513;-79
2022/03/07 09:12:42;;;;;;;15.25;10.05;;;2.90;99.90;;;;;;5011706;28;20029;-78
2022/03/07 09:15:09;;;;;;;19.38;10.18;;;3.10;99.90;;;;;;5011905;28;20026;-79
2022/03/07 09:17:34;;;;;;;17.70;10.75;;;3.20;99.90;;;;;;5012568;28;20030;-79
2022/03/07 09:20:00;;;;;;;16.10;10.05;;;3.20;99.90;;;;;;5012164;28;20029;-79
2022/03/07 09:22:26;;;;;;;18.73;10.38;;;3.30;99.90;;;;;;5011146;28;20087;-79
2022/03/07 09:24:53;;;;;;;17.83;9.98;;;3.40;99.90;;;;;;5008999;28;20030;-79
2022/03/07 09:27:19;;;;;;;16.73;10.15;;;3.50;99.90;;;;;;5008456;28;20842;-80
2022/03/07 09:29:45;;;;;;;13.25;8.73;;;3.60;99.90;;;;;;5006899;28;20113;-80
2022/03/07 09:32:11;;;;;;;10.82;7.60;;;3.70;99.90;;;;;;5013148;28;20053;-78
2022/03/07 09:34:37;;;;;;;13.68;7.20;;;3.90;99.90;;;;;;5010484;28;20021;-79
2022/03/07 09:37:04;;;;;;;6.95;4.82;;;4.00;99.90;;;;;;5011498;28;20032;-78
2022/03/07 09:39:32;;;;;;;5.97;3.80;;;4.10;99.90;;;;;;5012359;28;20091;-78
2022/03/07 09:41:58;;;;;;;7.70;3.70;;;4.30;99.90;;;;;;5008363;28;20448;-79
2022/03/07 09:44:23;;;;;;;5.63;3.22;;;4.30;99.90;;;;;;5012019;28;20057;-79
2022/03/07 09:46:50;;;;;;;6.25;2.95;;;4.40;99.90;;;;;;5007405;28;22105;-79
2022/03/07 09:49:18;;;;;;;5.22;2.60;;;4.50;99.90;;;;;;5008801;28;20050;-79
2022/03/07 09:51:44;;;;;;;5.70;2.70;;;4.60;99.90;;;;;;5010616;28;20030;-79
2022/03/07 09:54:09;;;;;;;6.45;3.13;;;4.60;99.90;;;;;;5003486;28;20018;-78
2022/03/07 09:56:35;;;;;;;4.78;2.72;;;4.70;99.90;;;;;;5012341;28;20055;-80
2022/03/07 09:59:01;;;;;;;4.75;2.92;;;4.70;99.20;;;;;;5010925;28;20050;-80
2022/03/07 10:01:27;;;;;;;5.97;2.30;;;4.70;99.40;;;;;;5003331;28;20018;-79
2022/03/07 10:04:05;;;;;;;5.70;2.40;;;4.80;97.30;;;;;;5013508;28;20026;-80
2022/03/07 10:06:31;;;;;;;4.80;2.50;;;4.80;97.00;;;;;;5013078;28;20018;-80
2022/03/07 10:08:59;;;;;;;4.28;2.15;;;4.80;96.60;;;;;;5011445;28;20049;-80
2022/03/07 10:11:31;;;;;;;3.60;1.85;;;4.90;95.80;;;;;;5012657;28;20022;-80
2022/03/07 10:14:00;;;;;;;6.30;3.00;;;4.90;95.70;;;;;;5013996;28;20033;-78
2022/03/07 10:16:40;;;;;;;5.10;2.85;;;4.90;95.00;;;;;;5013477;28;20090;-80
2022/03/07 10:19:11;;;;;;;7.88;3.25;;;5.00;95.00;;;;;;5013429;28;20044;-79
2022/03/07 10:21:44;;;;;;;5.03;2.80;;;5.10;95.00;;;;;;5005351;28;20546;-80
2022/03/07 10:24:09;;;;;;;4.85;2.80;;;5.10;93.50;;;;;;5001978;28;20029;-80
2022/03/07 10:26:35;;;;;;;6.18;3.05;;;5.10;93.70;;;;;;5013615;28;20375;-80
2022/03/07 10:29:03;;;;;;;5.05;3.15;;;5.20;92.80;;;;;;5012258;28;20029;-80
2022/03/07 10:31:29;;;;;;;5.38;3.30;;;5.20;92.50;;;;;;5011270;28;20030;-80
2022/03/07 10:34:06;;;;;;;5.05;3.50;;;5.20;93.00;;;;;;5011892;28;20022;-80
2022/03/07 10:36:41;;;;;;;6.13;3.20;;;5.30;92.90;;;;;;5011337;28;20609;-80
2022/03/07 10:39:13;;;;;;;7.10;3.83;;;5.30;93.30;;;;;;5010524;28;20462;-80
2022/03/07 10:41:40;;;;;;;;;;;5.40;92.70;;;;;;5005857;28;20327;-80
2022/03/07 10:44:08;;;;;;;7.50;3.40;;;5.40;91.60;;;;;;5003414;28;19905;-80
2022/03/07 10:46:34;;;;;;;7.35;3.97;;;5.40;91.30;;;;;;5011807;28;20037;-80
2022/03/07 10:49:00;;;;;;;6.13;3.45;;;5.40;90.20;;;;;;5008552;28;20033;-80
2022/03/07 10:51:26;;;;;;;6.30;2.97;;;5.40;88.40;;;;;;4999708;28;20075;-80
2022/03/07 10:53:53;;;;;;;7.68;4.30;;;5.40;89.10;;;;;;5006690;28;20104;-80
2022/03/07 10:56:21;;;;;;;5.80;3.22;;;5.40;88.10;;;;;;5015515;28;20517;-80
2022/03/07 10:58:52;;;;;;;7.03;3.72;;;5.40;88.80;;;;;;5007248;28;20072;-80
2022/03/07 11:01:32;;;;;;;5.03;3.10;;;5.60;88.60;;;;;;5010336;28;20382;-80
2022/03/07 11:03:59;;;;;;;5.60;3.85;;;5.60;87.90;;;;;;5012363;28;20041;-80
2022/03/07 11:06:27;;;;;;;4.68;2.83;;;5.60;85.10;;;;;;5012066;28;20061;-80
2022/03/07 11:08:53;;;;;;;5.93;3.40;;;5.60;85.20;;;;;;5012396;28;20022;-80
2022/03/07 11:11:20;;;;;;;7.65;3.88;;;5.60;85.20;;;;;;4997159;28;20030;-79
2022/03/07 11:13:51;;;;;;;6.50;4.18;;;5.70;85.40;;;;;;5004192;28;20477;-80
2022/03/07 11:16:17;;;;;;;6.00;2.83;;;5.70;85.60;;;;;;5007152;28;20033;-80
2022/03/07 11:18:52;;;;;;;6.57;3.10;;;5.80;85.30;;;;;;4999445;28;20089;-80
2022/03/07 11:21:18;;;;;;;6.07;3.63;;;5.80;84.90;;;;;;4996278;28;20037;-80
2022/03/07 11:23:45;;;;;;;6.25;3.88;;;5.80;85.20;;;;;;5005419;28;20057;-80
2022/03/07 11:26:11;;;;;;;4.93;3.40;;;5.90;85.80;;;;;;5010312;28;20037;-80
2022/03/07 11:28:37;;;;;;;8.25;3.97;;;6.00;86.60;;;;;;5006345;28;20394;-79
2022/03/07 11:31:02;;;;;;;7.82;3.90;;;6.10;85.50;;;;;;5005627;28;20036;-79
2022/03/07 11:33:37;;;;;;;7.88;3.90;;;6.20;86.10;;;;;;4998766;28;20053;-80
2022/03/07 11:36:05;;;;;;;7.55;3.88;;;6.20;86.50;;;;;;5012262;28;20485;-80
2022/03/07 11:38:35;;;;;;;6.50;4.05;;;6.30;85.80;;;;;;4996294;28;20098;-80
2022/03/07 11:41:13;;;;;;;5.78;4.00;;;6.40;85.00;;;;;;5000123;28;20125;-79
2022/03/07 11:43:53;;;;;;;7.30;4.60;;;6.40;84.10;;;;;;5010801;28;20026;-79
2022/03/07 11:46:33;;;;;;;7.10;4.00;;;6.30;83.00;;;;;;5003704;28;20037;-79
2022/03/07 11:49:01;;;;;;;5.07;3.55;;;6.30;84.10;;;;;;5005790;28;20037;-78
2022/03/07 11:51:29;;;;;;;9.07;5.22;;;6.40;83.60;;;;;;5010001;28;20037;-78
2022/03/07 11:53:57;;;;;;;5.82;4.28;;;6.40;83.60;;;;;;4999532;28;20098;-79
2022/03/07 11:56:35;;;;;;;6.60;4.22;;;6.50;83.70;;;;;;5006827;28;20038;-77
2022/03/07 11:59:04;;;;;;;8.23;4.50;;;6.50;83.60;;;;;;5010507;28;20040;-80
2022/03/07 12:01:31;;;;;;;6.57;3.75;;;6.50;81.90;;;;;;5009962;28;20397;-80
2022/03/07 12:04:24;;;;;;;7.85;4.70;;;6.40;82.20;;;;;;5009403;28;20068;-79
2022/03/07 12:06:53;;;;;;;8.52;4.40;;;6.40;80.50;;;;;;5009954;28;20104;-80
2022/03/07 12:09:24;;;;;;;7.10;4.75;;;6.30;80.90;;;;;;5010591;28;20050;-80
2022/03/07 12:12:08;;;;;;;8.40;4.68;;;6.30;82.10;;;;;;5010167;28;20425;-80
2022/03/07 12:14:36;;;;;;;7.32;3.95;;;6.50;82.20;;;;;;4992742;28;20157;-80
2022/03/07 12:17:11;;;;;;;6.20;3.90;;;6.50;81.70;;;;;;5009613;28;20031;-80
2022/03/07 12:19:37;;;;;;;8.38;5.10;;;6.60;81.70;;;;;;5004489;28;20018;-81
2022/03/07 12:22:15;;;;;;;7.65;4.47;;;6.50;81.70;;;;;;5009877;28;20022;-80
2022/03/07 12:24:41;;;;;;;6.72;4.15;;;6.70;81.60;;;;;;5003535;28;20103;-80
2022/03/07 12:27:08;;;;;;;7.03;4.13;;;6.70;80.60;;;;;;5006682;28;20482;-80
2022/03/07 12:29:34;;;;;;;7.93;4.15;;;6.70;80.30;;;;;;5011766;28;20369;-80
2022/03/07 12:32:06;;;;;;;7.72;3.70;;;6.80;81.10;;;;;;5014490;28;20040;-80
2022/03/07 12:34:34;;;;;;;7.57;4.15;;;6.90;79.50;;;;;;5006685;28;20022;-80
2022/03/07 12:37:03;;;;;;;6.97;4.32;;;6.90;79.20;;;;;;5007609;28;20448;-80
2022/03/07 12:39:32;;;;;;;5.78;3.60;;;6.90;78.10;;;;;;5005172;28;20056;-80